Time;durP1;ratioP1;P1;durP2;ratioP2;P2;SDS_P1;SDS_P2;PMS_P1;PMS_P2;Temp;Humidity;BMP_temperature;BMP_pressure;BME280_temperature;BME280_humidity;BME280_pressure;Samples;Min_cycle;Max_cycle;Signal;HPM_P1;HPM_P2
2024/01/19 00:00:28;;;;;;;0.20;0.10;;;;;;;;;;4961665;28;20058;-85
2024/01/19 00:02:57;;;;;;;0.20;0.20;;;;;;;;;;4965358;28;20050;-83
2024/01/19 00:06:14;;;;;;;0.20;0.10;;;;;;;;;;4954222;28;20104;-85
2024/01/19 00:09:12;;;;;;;0.20;0.10;;;;;;;;;;4970706;28;20042;-86
2024/01/19 00:12:22;;;;;;;0.20;0.10;;;;;;;;;;4933115;28;20100;-86
2024/01/19 00:14:48;;;;;;;0.20;0.10;;;;;;;;;;4966175;28;20050;-86
2024/01/19 00:17:22;;;;;;;0.20;0.10;;;;;;;;;;4953215;28;20501;-85
2024/01/19 00:20:01;;;;;;;;;;;;;;;;;;;;;
2024/01/19 00:22:41;;;;;;;0.20;0.10;;;;;;;;;;4965112;28;20042;-85
2024/01/19 00:25:07;;;;;;;0.20;0.10;;;;;;;;;;4949280;28;20101;-82
2024/01/19 00:27:36;;;;;;;0.20;0.10;;;;;;;;;;4961975;28;20038;-85
2024/01/19 00:30:11;;;;;;;0.20;0.10;;;;;;;;;;4954447;28;20136;-85
2024/01/19 00:33:11;;;;;;;0.20;0.10;;;;;;;;;;4969186;28;20491;-86
2024/01/19 00:35:49;;;;;;;0.20;0.10;;;;;;;;;;4994289;28;20467;-84
2024/01/19 00:41:07;;;;;;;0.20;0.10;;;;;;;;;;4967361;28;20527;-85
2024/01/19 00:43:34;;;;;;;0.20;0.10;;;;;;;;;;4967149;28;20344;-85
2024/01/19 00:46:03;;;;;;;0.20;0.10;;;;;;;;;;4951277;28;20046;-84
2024/01/19 00:48:35;;;;;;;0.20;0.10;;;;;;;;;;4969082;28;20299;-85
2024/01/19 00:51:01;;;;;;;0.20;0.10;;;;;;;;;;4965147;28;20423;-84
2024/01/19 00:53:35;;;;;;;0.20;0.10;;;;;;;;;;4968095;28;20046;-86
2024/01/19 00:56:08;;;;;;;0.20;0.10;;;;;;;;;;4953271;28;20054;-86
2024/01/19 00:58:44;;;;;;;0.20;0.10;;;;;;;;;;4953010;28;20503;-85
2024/01/19 01:01:29;;;;;;;0.20;0.10;;;;;;;;;;4955786;28;20136;-86
2024/01/19 01:03:58;;;;;;;0.20;0.10;;;;;;;;;;4956140;28;20072;-86
2024/01/19 01:06:27;;;;;;;0.20;0.10;;;;;;;;;;4952886;28;20042;-86
2024/01/19 01:08:53;;;;;;;0.20;0.10;;;;;;;;;;4963942;28;20043;-85
2024/01/19 01:11:23;;;;;;;0.20;0.00;;;;;;;;;;4959947;28;20209;-86
2024/01/19 01:13:57;;;;;;;0.22;0.13;;;;;;;;;;4953306;28;20067;-86
2024/01/19 01:16:34;;;;;;;0.20;0.10;;;;;;;;;;4965538;28;20121;-85
2024/01/19 01:19:00;;;;;;;0.20;0.10;;;;;;;;;;4951419;28;20046;-84
2024/01/19 01:21:33;;;;;;;0.20;0.10;;;;;;;;;;4953452;28;20068;-87
2024/01/19 01:24:05;;;;;;;0.20;0.10;;;;;;;;;;4965932;28;20427;-87
2024/01/19 01:26:34;;;;;;;0.20;0.10;;;;;;;;;;4952277;28;20038;-86
2024/01/19 01:29:00;;;;;;;0.20;0.10;;;;;;;;;;4953086;28;20034;-85
2024/01/19 01:31:34;;;;;;;0.20;0.10;;;;;;;;;;4968337;28;20038;-85
2024/01/19 01:34:00;;;;;;;0.20;0.10;;;;;;;;;;4967267;28;20034;-84
2024/01/19 01:36:26;;;;;;;0.20;0.10;;;;;;;;;;4967711;28;20045;-84
2024/01/19 01:38:55;;;;;;;0.20;0.10;;;;;;;;;;4970997;28;20046;-84
2024/01/19 01:41:21;;;;;;;0.20;0.10;;;;;;;;;;4967320;28;20038;-85
2024/01/19 01:43:47;;;;;;;0.20;0.10;;;;;;;;;;4953733;28;20069;-84
2024/01/19 01:46:13;;;;;;;0.20;0.10;;;;;;;;;;4968147;28;20046;-84
2024/01/19 01:48:42;;;;;;;0.20;0.10;;;;;;;;;;4961833;28;20042;-84
2024/01/19 01:51:20;;;;;;;0.20;0.10;;;;;;;;;;4955732;28;20395;-84
2024/01/19 01:53:46;;;;;;;0.20;0.10;;;;;;;;;;4956162;28;20039;-83
2024/01/19 01:56:12;;;;;;;0.20;0.10;;;;;;;;;;4972592;28;20037;-84
2024/01/19 01:58:38;;;;;;;0.20;0.00;;;;;;;;;;4955643;28;20124;-83
2024/01/19 02:01:04;;;;;;;0.20;0.10;;;;;;;;;;4974904;28;20073;-83
2024/01/19 02:03:33;;;;;;;0.20;0.10;;;;;;;;;;4959813;28;20053;-83
2024/01/19 02:06:03;;;;;;;0.20;0.10;;;;;;;;;;4958370;28;20042;-83
2024/01/19 02:08:29;;;;;;;0.20;0.10;;;;;;;;;;4958647;28;20065;-84
2024/01/19 02:10:55;;;;;;;0.20;0.10;;;;;;;;;;4962924;28;20499;-83
2024/01/19 02:13:21;;;;;;;0.20;0.10;;;;;;;;;;4953186;28;20034;-82
2024/01/19 02:15:47;;;;;;;0.20;0.10;;;;;;;;;;4954193;28;20422;-82
2024/01/19 02:18:13;;;;;;;0.20;0.10;;;;;;;;;;4966377;28;20042;-84
2024/01/19 02:20:39;;;;;;;0.20;0.10;;;;;;;;;;4955546;28;20079;-84
2024/01/19 02:23:10;;;;;;;0.20;0.10;;;;;;;;;;4957603;28;20046;-83
2024/01/19 02:25:36;;;;;;;0.20;0.10;;;;;;;;;;4970522;28;20073;-83
2024/01/19 02:28:03;;;;;;;0.20;0.10;;;;;;;;;;4955349;28;20074;-84
2024/01/19 02:30:30;;;;;;;0.20;0.10;;;;;;;;;;4987368;28;20097;-83
2024/01/19 02:32:56;;;;;;;0.20;0.10;;;;;;;;;;4969153;28;20723;-83
2024/01/19 02:35:22;;;;;;;0.20;0.10;;;;;;;;;;4952124;28;20104;-84
2024/01/19 02:37:48;;;;;;;0.20;0.10;;;;;;;;;;4976140;28;20030;-85
2024/01/19 02:40:14;;;;;;;0.20;0.10;;;;;;;;;;4969721;28;20039;-83
2024/01/19 02:42:40;;;;;;;0.20;0.10;;;;;;;;;;4952665;28;20035;-83
2024/01/19 02:45:07;;;;;;;0.20;0.10;;;;;;;;;;4964049;28;20251;-83
2024/01/19 02:47:33;;;;;;;0.20;0.10;;;;;;;;;;4951714;28;20082;-84
2024/01/19 02:49:59;;;;;;;0.20;0.10;;;;;;;;;;4953181;28;20734;-84
2024/01/19 02:52:25;;;;;;;0.20;0.10;;;;;;;;;;4950020;28;20134;-84
2024/01/19 02:54:51;;;;;;;0.20;0.10;;;;;;;;;;4974694;28;20042;-82
2024/01/19 02:57:17;;;;;;;0.20;0.10;;;;;;;;;;4960724;28;20036;-82
2024/01/19 02:59:43;;;;;;;0.20;0.10;;;;;;;;;;4961887;28;20042;-83
2024/01/19 03:02:09;;;;;;;0.20;0.00;;;;;;;;;;4973288;28;20042;-83
2024/01/19 03:04:35;;;;;;;0.20;0.10;;;;;;;;;;4960116;28;20074;-83
2024/01/19 03:07:01;;;;;;;0.20;0.10;;;;;;;;;;4967398;28;20050;-83
2024/01/19 03:09:27;;;;;;;0.20;0.10;;;;;;;;;;4975687;28;20097;-84
2024/01/19 03:11:53;;;;;;;0.20;0.10;;;;;;;;;;4975777;28;20045;-83
2024/01/19 03:14:19;;;;;;;0.20;0.10;;;;;;;;;;4958252;28;20530;-84
2024/01/19 03:16:56;;;;;;;0.20;0.10;;;;;;;;;;5009368;23;20062;-88
2024/01/19 03:19:22;;;;;;;0.20;0.10;;;;;;;;;;4977136;28;20837;-88
2024/01/19 03:21:51;;;;;;;0.20;0.10;;;;;;;;;;4994077;28;20042;-88
2024/01/19 03:24:17;;;;;;;0.20;0.10;;;;;;;;;;4969733;28;20061;-87
2024/01/19 03:26:54;;;;;;;0.20;0.10;;;;;;;;;;4953846;28;20447;-89
2024/01/19 03:29:23;;;;;;;0.20;0.10;;;;;;;;;;4965198;28;20038;-88
2024/01/19 03:31:53;;;;;;;0.20;0.10;;;;;;;;;;4968872;28;20038;-88
2024/01/19 03:34:23;;;;;;;0.20;0.10;;;;;;;;;;4953691;28;20062;-87
2024/01/19 03:36:49;;;;;;;0.20;0.10;;;;;;;;;;4954337;28;21009;-86
2024/01/19 03:39:22;;;;;;;0.20;0.10;;;;;;;;;;4967982;28;20054;-88
2024/01/19 03:41:48;;;;;;;0.20;0.10;;;;;;;;;;4952391;28;20057;-89
2024/01/19 03:44:19;;;;;;;0.20;0.10;;;;;;;;;;4969626;28;20129;-88
2024/01/19 03:46:46;;;;;;;0.20;0.10;;;;;;;;;;4948767;28;20082;-91
2024/01/19 03:49:12;;;;;;;0.20;0.10;;;;;;;;;;4964193;28;20085;-84
2024/01/19 03:51:38;;;;;;;0.20;0.10;;;;;;;;;;4951645;28;20034;-84
2024/01/19 03:54:11;;;;;;;0.20;0.10;;;;;;;;;;4968679;28;20050;-84
2024/01/19 03:56:38;;;;;;;0.20;0.10;;;;;;;;;;4955475;28;20031;-84
2024/01/19 03:59:07;;;;;;;0.20;0.10;;;;;;;;;;4969945;28;20046;-85
2024/01/19 04:01:56;;;;;;;0.20;0.10;;;;;;;;;;4957533;28;20046;-86
2024/01/19 04:04:28;;;;;;;0.20;0.10;;;;;;;;;;4916039;28;20058;-85
2024/01/19 04:06:55;;;;;;;0.20;0.10;;;;;;;;;;4968032;28;20125;-84
2024/01/19 04:09:43;;;;;;;0.20;0.10;;;;;;;;;;4954412;28;20563;-85
2024/01/19 04:12:19;;;;;;;0.20;0.10;;;;;;;;;;4967177;28;20085;-86
2024/01/19 04:15:08;;;;;;;0.20;0.10;;;;;;;;;;4961480;28;20145;-86
2024/01/19 04:24:17;;;;;;;0.20;0.10;;;;;;;;;;4928242;29;20062;-87
2024/01/19 04:26:55;;;;;;;0.20;0.10;;;;;;;;;;4912892;29;20043;-85
2024/01/19 04:30:06;;;;;;;0.20;0.10;;;;;;;;;;4911009;29;20039;-85
2024/01/19 04:51:42;;;;;;;;;;;;;;;;;;;;;
2024/01/19 04:57:50;;;;;;;0.20;0.10;;;;;;;;;;4946533;28;20038;-84
2024/01/19 05:00:36;;;;;;;0.20;0.10;;;;;;;;;;4980032;28;20051;-84
2024/01/19 05:03:15;;;;;;;0.20;0.10;;;;;;;;;;4950798;28;20062;-86
2024/01/19 05:05:50;;;;;;;0.20;0.10;;;;;;;;;;4956373;28;20119;-84
2024/01/19 05:08:16;;;;;;;0.20;0.10;;;;;;;;;;4949064;28;20074;-85
2024/01/19 05:10:51;;;;;;;0.20;0.10;;;;;;;;;;4954215;28;20073;-83
2024/01/19 05:13:19;;;;;;;0.20;0.10;;;;;;;;;;4950645;28;20114;-86
2024/01/19 05:16:20;;;;;;;0.20;0.10;;;;;;;;;;4950803;28;20101;-85
2024/01/19 05:22:23;;;;;;;;;;;;;;;;;;;;;
2024/01/19 05:29:00;;;;;;;0.20;0.10;;;;;;;;;;4932853;28;21000;-85
2024/01/19 05:31:58;;;;;;;0.20;0.10;;;;;;;;;;4919313;28;20138;-83
2024/01/19 05:35:21;;;;;;;0.20;0.10;;;;;;;;;;4904481;28;20079;-85
2024/01/19 05:42:01;;;;;;;0.20;0.10;;;;;;;;;;4912309;28;20050;-84
2024/01/19 05:48:27;;;;;;;0.20;0.10;;;;;;;;;;4982219;28;20121;-84
2024/01/19 05:55:40;;;;;;;0.20;0.10;;;;;;;;;;4923064;28;20502;-83
2024/01/19 05:58:33;;;;;;;;;;;;;;;;;;;;;
2024/01/19 06:04:28;;;;;;;0.20;0.10;;;;;;;;;;4887129;29;20075;-84
2024/01/19 06:07:49;;;;;;;0.20;0.10;;;;;;;;;;4825177;29;20580;-86
2024/01/19 06:10:53;;;;;;;;;;;;;;;;;;;;;
2024/01/19 06:17:40;;;;;;;0.20;0.10;;;;;;;;;;4802250;29;20107;-85
2024/01/19 06:24:04;;;;;;;0.20;0.10;;;;;;;;;;4782641;29;20059;-84
2024/01/19 06:27:13;;;;;;;;;;;;;;;;;;;;;
2024/01/19 06:33:31;;;;;;;0.20;0.10;;;;;;;;;;4831284;29;20273;-85
2024/01/19 06:36:09;;;;;;;0.20;0.10;;;;;;;;;;4939554;28;20059;-86
2024/01/19 06:39:07;;;;;;;0.20;0.10;;;;;;;;;;4973695;28;20638;-85
2024/01/19 06:41:57;;;;;;;0.20;0.10;;;;;;;;;;4944428;28;20058;-85
2024/01/19 06:44:23;;;;;;;0.20;0.10;;;;;;;;;;4916173;29;20138;-86
2024/01/19 06:46:52;;;;;;;0.20;0.10;;;;;;;;;;4937974;28;20039;-85
2024/01/19 06:49:18;;;;;;;0.20;0.10;;;;;;;;;;4956371;28;20045;-87
2024/01/19 06:51:44;;;;;;;0.20;0.10;;;;;;;;;;4951756;28;20074;-85
2024/01/19 06:54:16;;;;;;;0.20;0.10;;;;;;;;;;4955049;28;20098;-88
2024/01/19 06:56:48;;;;;;;0.20;0.10;;;;;;;;;;4957089;28;20031;-85
2024/01/19 06:59:14;;;;;;;0.20;0.10;;;;;;;;;;4971643;28;20105;-86
2024/01/19 07:01:40;;;;;;;0.20;0.10;;;;;;;;;;4955738;28;20046;-83
2024/01/19 07:04:06;;;;;;;0.20;0.10;;;;;;;;;;4983519;28;20042;-86
2024/01/19 07:06:33;;;;;;;0.20;0.10;;;;;;;;;;4969501;28;20308;-85
2024/01/19 07:08:59;;;;;;;0.20;0.10;;;;;;;;;;4963038;28;20049;-84
2024/01/19 07:11:25;;;;;;;0.20;0.10;;;;;;;;;;4959150;28;20073;-85
2024/01/19 07:13:52;;;;;;;0.20;0.10;;;;;;;;;;4961195;28;20038;-85
2024/01/19 07:16:18;;;;;;;0.20;0.10;;;;;;;;;;4976829;28;20043;-84
2024/01/19 07:18:44;;;;;;;0.20;0.10;;;;;;;;;;4965362;28;20107;-85
2024/01/19 07:21:11;;;;;;;0.20;0.10;;;;;;;;;;4968832;28;20050;-85
2024/01/19 07:23:37;;;;;;;0.20;0.10;;;;;;;;;;4969486;28;20046;-85
2024/01/19 07:26:04;;;;;;;0.20;0.10;;;;;;;;;;4972758;28;20519;-84
2024/01/19 07:28:30;;;;;;;0.20;0.05;;;;;;;;;;4973547;28;20044;-86
2024/01/19 07:30:56;;;;;;;0.20;0.10;;;;;;;;;;4965902;28;20050;-85
2024/01/19 07:33:24;;;;;;;0.20;0.10;;;;;;;;;;4962244;28;20035;-84
2024/01/19 07:36:05;;;;;;;0.20;0.10;;;;;;;;;;5095005;23;20049;-85
2024/01/19 07:38:41;;;;;;;0.20;0.10;;;;;;;;;;4981632;28;20136;-86
2024/01/19 07:41:45;;;;;;;0.20;0.10;;;;;;;;;;4991597;28;20073;-85
2024/01/19 07:47:55;;;;;;;0.20;0.10;;;;;;;;;;4919901;28;20047;-85
2024/01/19 07:50:22;;;;;;;0.20;0.10;;;;;;;;;;4952976;23;21186;-84
2024/01/19 07:52:48;;;;;;;0.20;0.10;;;;;;;;;;4947602;28;20128;-85
2024/01/19 07:55:14;;;;;;;0.20;0.10;;;;;;;;;;4939280;28;20499;-82
2024/01/19 07:57:40;;;;;;;0.20;0.10;;;;;;;;;;4945840;28;20045;-84
2024/01/19 08:00:08;;;;;;;0.20;0.10;;;;;;;;;;4952697;28;20367;-84
2024/01/19 08:02:34;;;;;;;0.20;0.10;;;;;;;;;;4966872;28;20325;-83
2024/01/19 08:05:00;;;;;;;0.20;0.10;;;;;;;;;;4934890;28;20137;-83
2024/01/19 08:07:26;;;;;;;0.20;0.10;;;;;;;;;;4935801;28;20126;-82
2024/01/19 08:09:52;;;;;;;0.20;0.10;;;;;;;;;;4939452;28;20101;-82
2024/01/19 08:12:18;;;;;;;0.20;0.10;;;;;;;;;;4934217;28;20046;-80
2024/01/19 08:14:44;;;;;;;0.20;0.10;;;;;;;;;;4951347;28;20118;-83
2024/01/19 08:17:10;;;;;;;0.20;0.10;;;;;;;;;;4952624;28;20043;-82
2024/01/19 08:19:36;;;;;;;0.20;0.10;;;;;;;;;;4932698;28;20043;-83
2024/01/19 08:22:03;;;;;;;0.20;0.10;;;;;;;;;;4949728;28;20537;-82
2024/01/19 08:24:29;;;;;;;0.20;0.10;;;;;;;;;;4949854;28;20133;-82
2024/01/19 08:26:55;;;;;;;0.20;0.10;;;;;;;;;;4932479;28;23133;-84
2024/01/19 08:29:21;;;;;;;0.20;0.10;;;;;;;;;;4947531;28;20111;-82
2024/01/19 08:31:50;;;;;;;0.20;0.10;;;;;;;;;;4937074;28;20495;-85
2024/01/19 08:34:16;;;;;;;0.20;0.10;;;;;;;;;;4950908;28;20121;-83
2024/01/19 08:36:42;;;;;;;0.20;0.10;;;;;;;;;;4949380;28;20129;-83
2024/01/19 08:39:09;;;;;;;0.20;0.10;;;;;;;;;;4945636;28;20483;-84
2024/01/19 08:41:44;;;;;;;0.20;0.10;;;;;;;;;;4937185;28;20570;-84
2024/01/19 08:44:10;;;;;;;0.20;0.10;;;;;;;;;;4967636;28;20527;-85
2024/01/19 08:46:47;;;;;;;0.20;0.10;;;;;;;;;;4930749;28;20053;-87
2024/01/19 08:49:13;;;;;;;0.20;0.10;;;;;;;;;;4947301;28;20043;-85
2024/01/19 08:51:40;;;;;;;0.20;0.10;;;;;;;;;;4951337;28;20129;-80
2024/01/19 08:54:06;;;;;;;0.20;0.10;;;;;;;;;;4939016;28;20042;-86
2024/01/19 08:56:32;;;;;;;0.20;0.10;;;;;;;;;;4929628;28;20050;-85
2024/01/19 08:58:58;;;;;;;0.20;0.10;;;;;;;;;;4965796;28;20427;-83
2024/01/19 09:01:24;;;;;;;0.20;0.10;;;;;;;;;;4931688;28;20585;-85
2024/01/19 09:03:50;;;;;;;0.20;0.10;;;;;;;;;;4930922;28;20543;-85
2024/01/19 09:06:16;;;;;;;0.20;0.10;;;;;;;;;;4934824;28;20093;-83
2024/01/19 09:08:43;;;;;;;0.20;0.10;;;;;;;;;;4934603;28;20043;-84
2024/01/19 09:11:09;;;;;;;0.20;0.10;;;;;;;;;;4948491;28;20416;-84
2024/01/19 09:13:37;;;;;;;0.20;0.10;;;;;;;;;;4950496;28;20085;-82
2024/01/19 09:16:04;;;;;;;0.20;0.10;;;;;;;;;;4946997;28;20574;-85
2024/01/19 09:18:30;;;;;;;0.20;0.10;;;;;;;;;;4945752;28;20043;-86
2024/01/19 09:20:56;;;;;;;0.20;0.10;;;;;;;;;;4950260;28;20042;-84
2024/01/19 09:23:22;;;;;;;0.20;0.10;;;;;;;;;;4950248;28;20039;-83
2024/01/19 09:25:49;;;;;;;0.20;0.00;;;;;;;;;;4937333;28;20149;-83
2024/01/19 09:28:15;;;;;;;0.20;0.10;;;;;;;;;;4934158;28;20130;-83
2024/01/19 09:30:41;;;;;;;0.20;0.10;;;;;;;;;;4936415;28;20391;-83
2024/01/19 09:33:07;;;;;;;0.20;0.10;;;;;;;;;;4945995;28;20043;-83
2024/01/19 09:35:33;;;;;;;0.20;0.10;;;;;;;;;;4935095;28;20138;-84
2024/01/19 09:37:59;;;;;;;0.20;0.10;;;;;;;;;;4943356;28;20126;-84
2024/01/19 09:40:25;;;;;;;0.20;0.10;;;;;;;;;;4948754;28;20454;-85
2024/01/19 09:42:54;;;;;;;0.20;0.10;;;;;;;;;;4935447;28;20093;-82
2024/01/19 09:45:21;;;;;;;0.20;0.10;;;;;;;;;;4954484;28;20550;-83
2024/01/19 09:47:47;;;;;;;0.20;0.10;;;;;;;;;;4931995;28;20407;-83
2024/01/19 09:50:17;;;;;;;0.20;0.10;;;;;;;;;;4950128;28;20043;-83
2024/01/19 09:52:46;;;;;;;0.20;0.10;;;;;;;;;;4948792;28;20042;-81
2024/01/19 09:55:12;;;;;;;0.20;0.10;;;;;;;;;;4948502;28;20415;-80
2024/01/19 09:57:44;;;;;;;0.20;0.10;;;;;;;;;;4964382;28;20069;-84
2024/01/19 10:00:10;;;;;;;0.20;0.10;;;;;;;;;;4934499;28;20050;-84
2024/01/19 10:02:36;;;;;;;0.20;0.10;;;;;;;;;;4946720;28;20053;-84
2024/01/19 10:05:02;;;;;;;0.20;0.10;;;;;;;;;;4946084;28;20055;-85
2024/01/19 10:07:29;;;;;;;0.20;0.10;;;;;;;;;;4946956;28;20048;-83
2024/01/19 10:09:59;;;;;;;0.20;0.10;;;;;;;;;;4932487;28;20413;-86
2024/01/19 10:12:26;;;;;;;0.20;0.10;;;;;;;;;;4933064;28;20043;-84
2024/01/19 10:14:52;;;;;;;0.20;0.10;;;;;;;;;;4930364;28;20551;-85
2024/01/19 10:17:18;;;;;;;0.20;0.10;;;;;;;;;;4946987;28;20618;-84
2024/01/19 10:19:44;;;;;;;0.20;0.10;;;;;;;;;;4950001;28;20431;-84
2024/01/19 10:22:26;;;;;;;0.20;0.10;;;;;;;;;;4932349;28;20526;-85
2024/01/19 10:25:01;;;;;;;0.20;0.10;;;;;;;;;;4936674;28;20082;-83
2024/01/19 10:27:56;;;;;;;0.20;0.10;;;;;;;;;;4944473;28;20133;-83
2024/01/19 10:30:26;;;;;;;0.20;0.03;;;;;;;;;;4943817;28;20051;-84
2024/01/19 10:33:05;;;;;;;0.20;0.10;;;;;;;;;;4949449;28;20137;-85
2024/01/19 10:35:31;;;;;;;0.20;0.10;;;;;;;;;;4963367;28;20062;-85
2024/01/19 10:38:07;;;;;;;0.20;0.10;;;;;;;;;;4949549;28;20038;-83
2024/01/19 10:40:42;;;;;;;0.20;0.10;;;;;;;;;;4939833;28;20062;-85
2024/01/19 10:43:18;;;;;;;0.20;0.10;;;;;;;;;;4948867;28;20040;-85
2024/01/19 10:45:45;;;;;;;0.20;0.10;;;;;;;;;;4945476;28;20037;-85
2024/01/19 10:51:56;;;;;;;0.20;0.10;;;;;;;;;;4857075;29;20086;-85
2024/01/19 10:54:34;;;;;;;0.20;0.10;;;;;;;;;;4858142;29;20044;-85
2024/01/19 10:57:03;;;;;;;0.20;0.10;;;;;;;;;;4912835;28;20118;-80
2024/01/19 10:59:29;;;;;;;0.20;0.10;;;;;;;;;;4963363;28;20055;-83
2024/01/19 11:01:59;;;;;;;0.20;0.10;;;;;;;;;;4937205;28;20054;-84
2024/01/19 11:04:26;;;;;;;0.20;0.10;;;;;;;;;;4952669;28;20043;-81
2024/01/19 11:06:52;;;;;;;0.20;0.10;;;;;;;;;;4964447;28;20077;-83
2024/01/19 11:09:18;;;;;;;0.20;0.10;;;;;;;;;;4936443;28;20074;-83
2024/01/19 11:11:53;;;;;;;0.20;0.10;;;;;;;;;;4932641;28;20086;-82
2024/01/19 11:14:22;;;;;;;0.20;0.10;;;;;;;;;;4946783;28;20036;-81
2024/01/19 11:16:49;;;;;;;0.20;0.10;;;;;;;;;;4938178;28;20049;-82
2024/01/19 11:19:17;;;;;;;0.20;0.10;;;;;;;;;;4950560;28;20042;-83
2024/01/19 11:21:44;;;;;;;0.20;0.10;;;;;;;;;;4956568;28;20053;-81
2024/01/19 11:24:10;;;;;;;0.20;0.03;;;;;;;;;;4939868;28;20534;-81
2024/01/19 11:26:41;;;;;;;0.20;0.10;;;;;;;;;;4956400;28;20050;-81
2024/01/19 11:29:16;;;;;;;0.20;0.10;;;;;;;;;;4956910;28;20523;-83
2024/01/19 11:31:42;;;;;;;0.20;0.10;;;;;;;;;;4944416;28;20039;-82
2024/01/19 11:34:08;;;;;;;0.20;0.10;;;;;;;;;;4938572;28;20073;-81
2024/01/19 11:36:41;;;;;;;0.20;0.10;;;;;;;;;;4973444;28;20450;-83
2024/01/19 11:39:10;;;;;;;0.20;0.10;;;;;;;;;;4937963;28;20113;-81
2024/01/19 11:41:36;;;;;;;0.20;0.10;;;;;;;;;;4948110;28;20050;-83
2024/01/19 11:44:03;;;;;;;0.20;0.08;;;;;;;;;;4963117;28;20230;-84
2024/01/19 11:46:44;;;;;;;0.20;0.10;;;;;;;;;;4952193;28;20170;-82
2024/01/19 11:49:38;;;;;;;0.20;0.10;;;;;;;;;;4950301;28;20773;-85
2024/01/19 11:52:24;;;;;;;0.20;0.10;;;;;;;;;;4951608;28;20117;-82
2024/01/19 11:54:50;;;;;;;0.20;0.10;;;;;;;;;;4915060;28;20042;-84
2024/01/19 11:57:17;;;;;;;0.20;0.20;;;;;;;;;;4939846;28;20555;-82
2024/01/19 11:59:44;;;;;;;0.20;0.10;;;;;;;;;;4938525;28;20054;-82
2024/01/19 12:02:33;;;;;;;0.20;0.10;;;;;;;;;;4932883;28;20074;-83
2024/01/19 12:05:00;;;;;;;0.20;0.10;;;;;;;;;;4955137;28;20562;-84
2024/01/19 12:07:26;;;;;;;0.20;0.10;;;;;;;;;;4937853;28;20034;-85
2024/01/19 12:10:05;;;;;;;0.20;0.10;;;;;;;;;;4969461;28;20066;-82
2024/01/19 12:12:31;;;;;;;0.20;0.10;;;;;;;;;;4950673;28;20133;-83
2024/01/19 12:14:57;;;;;;;0.20;0.10;;;;;;;;;;4930206;28;20122;-81
2024/01/19 12:17:23;;;;;;;0.20;0.10;;;;;;;;;;4950436;28;20073;-83
2024/01/19 12:19:52;;;;;;;0.20;0.10;;;;;;;;;;4947237;28;20479;-83
2024/01/19 12:22:18;;;;;;;0.20;0.10;;;;;;;;;;4936536;28;21126;-82
2024/01/19 12:24:44;;;;;;;0.20;0.10;;;;;;;;;;4951368;28;20435;-82
2024/01/19 12:27:10;;;;;;;0.20;0.00;;;;;;;;;;4929178;28;20512;-83
2024/01/19 12:29:36;;;;;;;0.20;0.20;;;;;;;;;;4947203;28;20039;-85
2024/01/19 12:32:29;;;;;;;0.20;0.00;;;;;;;;;;4968337;28;20043;-82
2024/01/19 12:34:58;;;;;;;0.20;0.00;;;;;;;;;;4947502;28;20055;-83
2024/01/19 12:37:24;;;;;;;0.40;0.40;;;;;;;;;;4952571;28;20043;-80
2024/01/19 12:39:50;;;;;;;0.20;0.10;;;;;;;;;;4939844;28;20038;-85
2024/01/19 12:42:17;;;;;;;0.20;0.10;;;;;;;;;;4937075;28;20581;-81
2024/01/19 12:44:43;;;;;;;0.20;0.10;;;;;;;;;;4941030;28;20042;-82
2024/01/19 12:47:09;;;;;;;0.20;0.00;;;;;;;;;;4934476;28;20137;-84
2024/01/19 12:49:35;;;;;;;0.20;0.10;;;;;;;;;;4946846;28;20035;-82
2024/01/19 12:52:01;;;;;;;0.20;0.10;;;;;;;;;;4934990;28;20185;-83
2024/01/19 12:54:41;;;;;;;0.20;0.00;;;;;;;;;;4947457;28;20661;-83
2024/01/19 12:57:15;;;;;;;0.20;0.10;;;;;;;;;;4944830;28;20053;-83
2024/01/19 12:59:41;;;;;;;0.20;0.10;;;;;;;;;;4940015;28;20085;-82
2024/01/19 13:02:09;;;;;;;0.75;0.75;;;;;;;;;;4960366;28;20054;-82
2024/01/19 13:04:35;;;;;;;0.20;0.10;;;;;;;;;;4948270;28;20043;-84
2024/01/19 13:07:02;;;;;;;0.20;0.10;;;;;;;;;;4948560;28;20047;-80
2024/01/19 13:09:28;;;;;;;0.20;0.10;;;;;;;;;;4952902;28;20054;-83
2024/01/19 13:12:08;;;;;;;0.20;0.10;;;;;;;;;;4950353;28;20097;-84
2024/01/19 13:14:34;;;;;;;0.20;0.10;;;;;;;;;;4948699;28;20043;-84
2024/01/19 13:17:03;;;;;;;0.20;0.10;;;;;;;;;;4941329;28;20531;-84
2024/01/19 13:19:49;;;;;;;0.20;0.00;;;;;;;;;;4931902;28;20038;-84
2024/01/19 13:22:16;;;;;;;0.20;0.10;;;;;;;;;;4934685;28;20507;-84
2024/01/19 13:24:43;;;;;;;0.20;0.03;;;;;;;;;;4936794;28;20042;-82
2024/01/19 13:27:10;;;;;;;0.20;0.10;;;;;;;;;;4937252;28;20090;-81
2024/01/19 13:29:37;;;;;;;0.20;0.10;;;;;;;;;;4954032;28;20039;-82
2024/01/19 13:32:03;;;;;;;0.20;0.00;;;;;;;;;;4950773;28;20133;-84
2024/01/19 13:34:29;;;;;;;0.20;0.00;;;;;;;;;;4928475;28;20134;-83
2024/01/19 13:36:55;;;;;;;0.20;0.10;;;;;;;;;;4940154;28;20050;-84
2024/01/19 13:39:21;;;;;;;0.20;0.10;;;;;;;;;;4938784;28;20051;-81
2024/01/19 13:41:47;;;;;;;0.20;0.10;;;;;;;;;;4937121;28;20043;-84
2024/01/19 13:44:13;;;;;;;0.20;0.10;;;;;;;;;;4960958;28;20085;-83
2024/01/19 13:46:39;;;;;;;0.20;0.10;;;;;;;;;;4939449;28;20073;-82
2024/01/19 13:49:05;;;;;;;0.20;0.10;;;;;;;;;;4938535;28;20050;-82
2024/01/19 13:51:31;;;;;;;0.20;0.10;;;;;;;;;;5007336;23;20054;-86
2024/01/19 13:53:57;;;;;;;0.20;0.10;;;;;;;;;;4983384;28;20046;-88
2024/01/19 13:56:23;;;;;;;0.20;0.10;;;;;;;;;;4982010;28;20046;-86
2024/01/19 13:58:50;;;;;;;0.20;0.00;;;;;;;;;;4968437;28;20354;-87
2024/01/19 14:01:16;;;;;;;0.20;0.00;;;;;;;;;;4966967;28;20116;-88
2024/01/19 14:03:45;;;;;;;0.20;0.10;;;;;;;;;;4966552;28;20046;-87
2024/01/19 14:06:14;;;;;;;0.20;0.10;;;;;;;;;;4972044;28;20161;-85
2024/01/19 14:08:51;;;;;;;0.20;0.00;;;;;;;;;;4978948;28;20044;-87
2024/01/19 14:11:29;;;;;;;0.20;0.10;;;;;;;;;;4971011;28;20498;-86
2024/01/19 14:14:01;;;;;;;0.20;0.00;;;;;;;;;;4997879;28;20033;-88
2024/01/19 14:16:27;;;;;;;0.20;0.05;;;;;;;;;;4977417;28;20034;-85
2024/01/19 14:19:04;;;;;;;0.20;0.10;;;;;;;;;;4977398;28;20096;-85
2024/01/19 14:21:33;;;;;;;0.20;0.10;;;;;;;;;;4977195;28;20046;-87
2024/01/19 14:24:02;;;;;;;0.20;0.10;;;;;;;;;;4976110;28;20406;-87
2024/01/19 14:26:42;;;;;;;0.20;0.00;;;;;;;;;;4991815;28;20096;-87
2024/01/19 14:29:29;;;;;;;0.20;0.10;;;;;;;;;;4970046;28;20038;-85
2024/01/19 14:31:55;;;;;;;0.30;0.20;;;;;;;;;;4968011;28;20050;-85
2024/01/19 14:34:22;;;;;;;0.20;0.10;;;;;;;;;;4976564;28;20038;-86
2024/01/19 14:36:49;;;;;;;0.20;0.10;;;;;;;;;;4968849;28;20069;-84
2024/01/19 14:39:15;;;;;;;0.20;0.10;;;;;;;;;;4973150;28;20092;-85
2024/01/19 14:41:41;;;;;;;0.20;0.10;;;;;;;;;;4973925;28;20046;-86
2024/01/19 14:44:28;;;;;;;0.20;0.10;;;;;;;;;;4976742;28;20124;-84
2024/01/19 14:46:55;;;;;;;0.20;0.10;;;;;;;;;;4997265;28;20057;-88
2024/01/19 14:49:29;;;;;;;0.20;0.10;;;;;;;;;;5011985;28;20046;-87
2024/01/19 14:51:55;;;;;;;0.20;0.08;;;;;;;;;;4983546;28;20072;-83
2024/01/19 14:54:24;;;;;;;0.20;0.10;;;;;;;;;;5002628;28;20042;-88
2024/01/19 14:56:53;;;;;;;0.20;0.10;;;;;;;;;;4983316;28;20136;-85
2024/01/19 14:59:20;;;;;;;0.20;0.00;;;;;;;;;;4999839;28;20790;-86
2024/01/19 15:01:48;;;;;;;0.20;0.10;;;;;;;;;;4979466;28;20134;-85
2024/01/19 15:04:40;;;;;;;0.20;0.00;;;;;;;;;;4992377;28;20045;-85
2024/01/19 15:07:06;;;;;;;0.20;0.10;;;;;;;;;;4973810;28;20050;-86
2024/01/19 15:09:45;;;;;;;0.20;0.10;;;;;;;;;;4980078;28;20045;-86
2024/01/19 15:12:11;;;;;;;0.20;0.00;;;;;;;;;;4987020;28;20069;-86
2024/01/19 15:14:37;;;;;;;0.20;0.10;;;;;;;;;;4979799;28;20121;-84
2024/01/19 15:17:03;;;;;;;0.20;0.10;;;;;;;;;;4978634;28;20041;-87
2024/01/19 15:19:31;;;;;;;0.20;0.10;;;;;;;;;;4981338;28;20076;-85
2024/01/19 15:21:57;;;;;;;0.20;0.00;;;;;;;;;;4996588;28;20072;-87
2024/01/19 15:24:25;;;;;;;0.20;0.00;;;;;;;;;;4973249;28;20137;-86
2024/01/19 15:26:51;;;;;;;0.20;0.00;;;;;;;;;;4988646;28;20088;-85
2024/01/19 15:29:21;;;;;;;0.20;0.10;;;;;;;;;;4971235;28;20038;-85
2024/01/19 15:31:50;;;;;;;0.20;0.10;;;;;;;;;;4976161;28;20038;-87
2024/01/19 15:34:19;;;;;;;0.20;0.10;;;;;;;;;;4979420;28;20041;-86
2024/01/19 15:36:56;;;;;;;0.20;0.10;;;;;;;;;;4987210;28;20046;-86
2024/01/19 15:39:22;;;;;;;0.20;0.05;;;;;;;;;;4971463;28;20192;-87
2024/01/19 15:41:49;;;;;;;0.20;0.10;;;;;;;;;;4974916;28;20473;-85
2024/01/19 15:44:15;;;;;;;0.20;0.10;;;;;;;;;;4978412;28;20065;-87
2024/01/19 15:46:47;;;;;;;0.20;0.00;;;;;;;;;;4975572;28;21670;-84
2024/01/19 15:49:13;;;;;;;0.20;0.10;;;;;;;;;;4977141;28;20132;-86
2024/01/19 15:51:39;;;;;;;0.20;0.10;;;;;;;;;;4970330;28;20072;-88
2024/01/19 15:54:08;;;;;;;0.20;0.10;;;;;;;;;;4971924;28;20052;-87
2024/01/19 15:56:34;;;;;;;0.20;0.13;;;;;;;;;;4973090;28;20092;-86
2024/01/19 15:59:03;;;;;;;0.20;0.10;;;;;;;;;;4994875;28;20109;-89
2024/01/19 16:01:40;;;;;;;0.20;0.10;;;;;;;;;;4979814;28;20120;-87
2024/01/19 16:04:06;;;;;;;0.20;0.10;;;;;;;;;;4978433;28;20054;-85
2024/01/19 16:06:38;;;;;;;0.20;0.10;;;;;;;;;;4976905;28;20482;-85
2024/01/19 16:09:11;;;;;;;0.20;0.10;;;;;;;;;;4976522;28;20510;-86
2024/01/19 16:11:48;;;;;;;0.20;0.10;;;;;;;;;;4991049;28;20156;-86
2024/01/19 16:14:23;;;;;;;0.20;0.17;;;;;;;;;;4976553;28;20125;-85
2024/01/19 16:16:51;;;;;;;0.20;0.10;;;;;;;;;;5008740;28;20049;-86
2024/01/19 16:19:20;;;;;;;0.20;0.10;;;;;;;;;;4970539;28;20049;-87
2024/01/19 16:21:55;;;;;;;0.20;0.10;;;;;;;;;;4991943;28;20034;-85
2024/01/19 16:24:21;;;;;;;0.20;0.10;;;;;;;;;;4992374;28;20155;-87